SE Lincoln WX Station Historical Data
 
Daily Summary for October 20, 2021 Units:  English    Metric   Both
Daily Weekly Monthly Yearly
  Current: High: Low: Average:
Temperature: 64.3 °F 66 °F 64.3 °F 65.2 °F
Dew Point: 55.8 °F 56.5 °F 55.8 °F 56.2 °F
Humidity: 74% 74% 71% 73%
Wind Speed: 2mph 5.6mph 1.4mph 3.8mph
Wind Gust: 7mph 17mph - -
WindSouth - - SSE
Pressure: 29.81 in 29.84 in 29.81 in -
Precipitation: 0.00 in      
 
 
Tabular Data for October 20, 2021
Time Temperature Dew Point Pressure Wind Wind Speed Wind Gust Humidity Rainfall Rate (Hourly) solar
00:04 66 °F 56.3 °F 29.84 in South 1.4 mph 5 mph 71% 0.00 in 0 W/m2
00:09 65.9 °F 56.3 °F 29.84 in South 2.1 mph 6 mph 71.1% 0.00 in 0 W/m2
00:14 65.8 °F 56.5 °F 29.84 in SSE 2.9 mph 6 mph 72% 0.00 in 0 W/m2
00:19 65.7 °F 56.5 °F 29.84 in SSE 3.3 mph 9 mph 72% 0.00 in 0 W/m2
00:24 65.7 °F 56.4 °F 29.83 in South 2.6 mph 9 mph 72% 0.00 in 0 W/m2
00:29 65.7 °F 56.4 °F 29.83 in SE 3.6 mph 8 mph 72% 0.00 in 0 W/m2
00:34 65.6 °F 56.3 °F 29.83 in SSE 2.7 mph 6 mph 72% 0.00 in 0 W/m2
00:39 65.5 °F 56.3 °F 29.83 in SSE 3 mph 10 mph 72% 0.00 in 0 W/m2
00:44 65.5 °F 56.3 °F 29.83 in SSE 4.6 mph 10 mph 72% 0.00 in 0 W/m2
00:49 65.5 °F 56.3 °F 29.82 in SSE 4.4 mph 10 mph 72% 0.00 in 0 W/m2
00:54 65.5 °F 56.2 °F 29.82 in South 3.4 mph 10 mph 72% 0.00 in 0 W/m2
00:59 65.4 °F 56.1 °F 29.82 in SSE 4.5 mph 11 mph 72% 0.00 in 0 W/m2
01:04 65.4 °F 56.1 °F 29.82 in SSE 4.6 mph 9 mph 72% 0.00 in 0 W/m2
01:09 65.3 °F 56.1 °F 29.82 in SSE 3.8 mph 11 mph 72% 0.00 in 0 W/m2
01:14 65.3 °F 56.1 °F 29.82 in SSE 5.1 mph 11 mph 72% 0.00 in 0 W/m2
01:19 65.3 °F 56.1 °F 29.81 in SSE 5 mph 12 mph 72% 0.00 in 0 W/m2
01:24 65.3 °F 56.3 °F 29.81 in SSE 5.6 mph 12 mph 72.7% 0.00 in 0 W/m2
01:29 65.2 °F 56.3 °F 29.81 in SSE 5.4 mph 13 mph 72.9% 0.00 in 0 W/m2
01:34 65.1 °F 56.3 °F 29.81 in SE 5.2 mph 11 mph 73% 0.00 in 0 W/m2
01:39 65.1 °F 56.2 °F 29.81 in SSE 3.8 mph 12 mph 73% 0.00 in 0 W/m2
01:44 65 °F 56.2 °F 29.81 in SSE 4.1 mph 11 mph 73% 0.00 in 0 W/m2
01:49 65 °F 56.1 °F 29.81 in SSE 4.7 mph 17 mph 73% 0.00 in 0 W/m2
01:54 64.9 °F 56.1 °F 29.81 in SSE 3.3 mph 8 mph 73% 0.00 in 0 W/m2
01:59 64.8 °F 56 °F 29.81 in SSE 4.8 mph 9 mph 73% 0.00 in 0 W/m2
02:04 64.7 °F 55.9 °F 29.81 in South 3.6 mph 10 mph 73% 0.00 in 0 W/m2
02:09 64.7 °F 56 °F 29.81 in SSE 3.5 mph 8 mph 73.5% 0.00 in 0 W/m2
02:14 64.6 °F 56.1 °F 29.81 in South 3.8 mph 9 mph 74% 0.00 in 0 W/m2
02:19 64.5 °F 56 °F 29.81 in South 4.5 mph 8 mph 74% 0.00 in 0 W/m2
02:24 64.4 °F 55.9 °F 29.81 in SSE 3.9 mph 10 mph 74% 0.00 in 0 W/m2
02:29 64.4 °F 55.9 °F 29.81 in South 3.8 mph 9 mph 74% 0.00 in 0 W/m2
02:34 64.3 °F 55.8 °F 29.81 in SSE 3.9 mph 9 mph 74% 0.00 in 0 W/m2
02:39 64.3 °F 55.8 °F 29.81 in South 2 mph 7 mph 74% 0.00 in 0 W/m2
66th and South
Compliments of Weather Underground - 12.6 mb